Time;durP1;ratioP1;P1;durP2;ratioP2;P2;SDS_P1;SDS_P2;PMS_P1;PMS_P2;Temp;Humidity;BMP_temperature;BMP_pressure;BME280_temperature;BME280_humidity;BME280_pressure;Samples;Min_cycle;Max_cycle;Signal;HPM_P1;HPM_P2
2022/10/03 00:02:30;;;;;;;;;;;;;;;21.38;29.09;97718.38;4940881;29;854;-79
2022/10/03 00:05:01;;;;;;;;;;;;;;;21.06;29.17;97723.72;4946774;28;924;-79
2022/10/03 00:07:45;;;;;;;;;;;;;;;21.27;28.84;97713.81;5015444;28;767;-79
2022/10/03 00:10:11;;;;;;;;;;;;;;;21.12;29.09;97718.28;5015126;28;1914;-79
2022/10/03 00:12:38;;;;;;;;;;;;;;;20.99;29.21;97714.66;5015107;28;739;-79
2022/10/03 00:15:25;;;;;;;;;;;;;;;21.01;29.63;97717.81;5015227;28;778;-79
2022/10/03 00:18:11;;;;;;;;;;;;;;;21.29;28.84;97708.47;5015443;28;937;-79
2022/10/03 00:20:48;;;;;;;;;;;;;;;21.30;28.89;97707.28;5015326;28;830;-79
2022/10/03 00:23:17;;;;;;;;;;;;;;;21.01;29.38;97707.28;5015459;28;882;-79
2022/10/03 00:25:58;;;;;;;;;;;;;;;21.00;29.36;97704.91;5015642;28;1013;-79
2022/10/03 00:28:24;;;;;;;;;;;;;;;20.71;29.80;97694.41;5015210;28;856;-79
2022/10/03 00:30:58;;;;;;;;;;;;;;;20.87;29.57;97701.25;5014779;28;1979;-79
2022/10/03 00:33:37;;;;;;;;;;;;;;;20.97;29.79;97700.94;5014924;28;914;-79
2022/10/03 00:36:06;;;;;;;;;;;;;;;21.20;29.61;97691.38;5013958;28;806;-79
2022/10/03 00:38:52;;;;;;;;;;;;;;;21.07;29.52;97682.84;5013006;28;948;-79
2022/10/03 00:41:36;;;;;;;;;;;;;;;20.84;29.98;97682.38;4996256;28;1308;-79
2022/10/03 00:44:08;;;;;;;;;;;;;;;20.91;29.82;97682.94;5012817;28;1235;-79
2022/10/03 00:46:50;;;;;;;;;;;;;;;21.00;29.37;97676.63;5012413;28;783;-79
2022/10/03 00:49:25;;;;;;;;;;;;;;;21.17;29.36;97678.13;5012251;28;1969;-79
2022/10/03 00:52:00;;;;;;;;;;;;;;;21.46;28.79;97666.78;4998346;28;752;-79
2022/10/03 00:54:35;;;;;;;;;;;;;;;21.16;29.16;97673.72;5001357;28;747;-79
2022/10/03 00:57:05;;;;;;;;;;;;;;;21.29;28.98;97668.84;5001139;28;723;-79
2022/10/03 00:59:33;;;;;;;;;;;;;;;21.04;29.49;97674.50;5016053;28;942;-79
2022/10/03 01:02:02;;;;;;;;;;;;;;;21.09;29.27;97676.78;5001339;28;787;-79
2022/10/03 01:04:27;;;;;;;;;;;;;;;21.25;29.33;97671.03;5016243;28;883;-79
2022/10/03 01:07:04;;;;;;;;;;;;;;;21.27;29.11;97679.84;5016625;28;1151;-79
2022/10/03 01:09:50;;;;;;;;;;;;;;;21.34;29.02;97667.53;5016535;28;1898;-79
2022/10/03 01:12:21;;;;;;;;;;;;;;;21.12;29.56;97672.25;5016073;28;986;-79
2022/10/03 01:14:53;;;;;;;;;;;;;;;20.97;29.58;97671.84;5016316;28;1225;-79
2022/10/03 01:17:27;;;;;;;;;;;;;;;20.89;29.72;97670.50;5000896;28;763;-79
2022/10/03 01:20:14;;;;;;;;;;;;;;;20.74;29.95;97665.25;5016121;28;712;-79
2022/10/03 01:22:45;;;;;;;;;;;;;;;21.07;29.71;97665.09;4999666;28;1173;-79
2022/10/03 01:25:15;;;;;;;;;;;;;;;21.38;29.31;97656.13;5000845;28;1064;-79
2022/10/03 01:30:42;;;;;;;;;;;;;;;21.07;29.40;97657.41;5013157;28;1962;-79
2022/10/03 01:33:21;;;;;;;;;;;;;;;21.16;29.57;97656.75;5015590;28;1123;-79
2022/10/03 01:35:46;;;;;;;;;;;;;;;21.15;29.17;97658.00;4999442;28;1076;-80
2022/10/03 01:38:19;;;;;;;;;;;;;;;20.95;29.72;97654.56;5000803;28;759;-79
2022/10/03 01:41:17;;;;;;;;;;;;;;;21.25;29.55;97642.72;4999235;28;823;-79
2022/10/03 01:43:59;;;;;;;;;;;;;;;21.39;29.54;97641.50;4943395;29;1049;-79
2022/10/03 01:46:27;;;;;;;;;;;;;;;21.10;29.51;97640.78;4943684;29;887;-79
2022/10/03 01:48:58;;;;;;;;;;;;;;;21.02;29.53;97645.84;4927761;29;1919;-79
2022/10/03 01:51:26;;;;;;;;;;;;;;;21.03;29.41;97645.41;4959294;29;692;-79
2022/10/03 01:53:57;;;;;;;;;;;;;;;21.18;29.15;97642.94;4943534;29;889;-79
2022/10/03 01:56:34;;;;;;;;;;;;;;;21.08;29.38;97633.53;4959428;29;740;-79
2022/10/03 01:59:19;;;;;;;;;;;;;;;21.40;29.39;97631.78;4943119;29;887;-79
2022/10/03 02:01:47;;;;;;;;;;;;;;;21.38;29.04;97633.47;4942827;29;780;-79
2022/10/03 02:04:27;;;;;;;;;;;;;;;21.03;29.75;97631.25;4958760;28;731;-79
2022/10/03 02:06:59;;;;;;;;;;;;;;;20.97;29.60;97632.25;4943530;29;881;-79
2022/10/03 02:09:27;;;;;;;;;;;;;;;20.97;29.49;97618.13;4942953;29;1903;-79
2022/10/03 02:11:58;;;;;;;;;;;;;;;20.83;29.64;97627.03;4943173;29;1211;-79
2022/10/03 02:14:23;;;;;;;;;;;;;;;20.72;29.89;97628.13;4927572;29;1231;-80
2022/10/03 02:16:58;;;;;;;;;;;;;;;20.73;29.87;97635.41;4943277;29;1098;-79
2022/10/03 02:19:23;;;;;;;;;;;;;;;21.13;29.35;97637.81;4971826;28;1035;-79
2022/10/03 02:21:52;;;;;;;;;;;;;;;21.30;29.16;97630.88;4999823;28;847;-79
2022/10/03 02:24:27;;;;;;;;;;;;;;;21.29;29.10;97632.06;5014988;28;826;-79
2022/10/03 02:26:52;;;;;;;;;;;;;;;21.06;29.19;97641.69;4999670;28;708;-79
2022/10/03 02:29:24;;;;;;;;;;;;;;;21.14;29.07;97625.28;4999638;28;1906;-79
2022/10/03 02:32:08;;;;;;;;;;;;;;;21.28;29.14;97622.00;4999769;28;1046;-80
2022/10/03 02:34:52;;;;;;;;;;;;;;;21.01;29.75;97628.09;4999526;28;827;-79
2022/10/03 02:37:24;;;;;;;;;;;;;;;21.07;29.38;97631.94;5000089;28;787;-79
2022/10/03 02:39:50;;;;;;;;;;;;;;;21.56;28.55;97625.22;4999375;28;856;-79
2022/10/03 02:42:35;;;;;;;;;;;;;;;21.51;28.80;97625.78;4999157;28;923;-79
2022/10/03 02:45:07;;;;;;;;;;;;;;;21.11;29.09;97637.50;4999133;28;1081;-79
2022/10/03 02:47:32;;;;;;;;;;;;;;;21.20;29.20;97648.16;4999326;28;787;-79
2022/10/03 02:50:18;;;;;;;;;;;;;;;21.24;29.00;97651.66;4999309;28;1910;-79
2022/10/03 02:52:43;;;;;;;;;;;;;;;21.10;29.23;97654.94;5013998;28;850;-80
2022/10/03 02:55:27;;;;;;;;;;;;;;;20.96;29.45;97659.75;4998736;28;874;-79
2022/10/03 02:58:10;;;;;;;;;;;;;;;21.22;29.62;97654.16;5013929;28;808;-79
2022/10/03 03:00:54;;;;;;;;;;;;;;;21.37;29.09;97654.53;5014000;28;751;-79
2022/10/03 03:03:38;;;;;;;;;;;;;;;21.02;29.48;97660.78;4999333;28;823;-79
2022/10/03 03:06:21;;;;;;;;;;;;;;;21.09;29.51;97662.63;4998838;28;827;-79
2022/10/03 03:09:01;;;;;;;;;;;;;;;21.15;29.51;97657.22;4998754;28;955;-79
2022/10/03 03:11:29;;;;;;;;;;;;;;;21.05;29.32;97653.44;5016046;28;939;-79
2022/10/03 03:13:58;;;;;;;;;;;;;;;21.17;29.32;97651.88;5015940;28;1003;-79
2022/10/03 03:16:43;;;;;;;;;;;;;;;21.29;29.50;97645.44;5015875;28;874;-79
2022/10/03 03:19:15;;;;;;;;;;;;;;;21.26;29.42;97638.66;4957162;29;986;-79
2022/10/03 03:21:41;;;;;;;;;;;;;;;21.19;29.23;97632.41;4957383;29;956;-80
2022/10/03 03:24:38;;;;;;;;;;;;;;;20.86;29.62;97640.28;4957291;29;997;-80
2022/10/03 03:27:04;;;;;;;;;;;;;;;20.87;29.83;97639.81;4919262;29;926;-79
2022/10/03 03:29:33;;;;;;;;;;;;;;;20.86;29.88;97637.44;4919256;29;1975;-79
2022/10/03 03:32:04;;;;;;;;;;;;;;;21.11;29.33;97631.84;4903527;29;1289;-79
2022/10/03 03:34:34;;;;;;;;;;;;;;;21.40;28.68;97619.66;4919509;29;756;-79
2022/10/03 03:37:00;;;;;;;;;;;;;;;21.41;28.71;97624.09;4919461;29;899;-79
2022/10/03 03:39:34;;;;;;;;;;;;;;;21.12;29.25;97622.09;4919456;29;772;-79
2022/10/03 03:42:17;;;;;;;;;;;;;;;21.12;29.08;97619.28;4913101;29;978;-79
2022/10/03 03:44:43;;;;;;;;;;;;;;;21.12;28.93;97621.31;4900317;29;777;-79
2022/10/03 03:47:13;;;;;;;;;;;;;;;21.01;29.69;97621.66;4915820;29;866;-79
2022/10/03 03:49:59;;;;;;;;;;;;;;;21.43;28.66;97616.72;4900495;29;1902;-79
2022/10/03 03:52:24;;;;;;;;;;;;;;;21.03;29.03;97608.63;4900204;29;1147;-79
2022/10/03 03:55:00;;;;;;;;;;;;;;;21.23;28.85;97602.75;4900054;29;1027;-79
2022/10/03 03:57:32;;;;;;;;;;;;;;;20.93;29.38;97608.94;4960122;28;925;-79
2022/10/03 04:00:10;;;;;;;;;;;;;;;20.97;29.22;97598.31;4976767;28;914;-79
2022/10/03 04:02:57;;;;;;;;;;;;;;;20.94;29.20;97596.41;4992533;28;927;-79
2022/10/03 04:05:25;;;;;;;;;;;;;;;21.37;28.90;97593.06;4996776;28;760;-79
2022/10/03 04:08:00;;;;;;;;;;;;;;;21.49;28.63;97597.13;5012894;28;746;-79
2022/10/03 04:10:26;;;;;;;;;;;;;;;20.96;29.62;97596.75;4997934;28;1895;-79
2022/10/03 04:13:00;;;;;;;;;;;;;;;20.96;29.19;97591.09;4997901;28;765;-80
2022/10/03 04:15:41;;;;;;;;;;;;;;;20.99;29.46;97595.84;4997892;28;814;-80
2022/10/03 04:21:16;;;;;;;;;;;;;;;20.87;29.35;97608.72;4997592;28;768;-80
2022/10/03 04:23:56;;;;;;;;;;;;;;;20.66;29.71;97601.66;4997831;28;787;-79
2022/10/03 04:26:41;;;;;;;;;;;;;;;20.84;29.87;97606.00;4996940;28;763;-79
2022/10/03 04:29:10;;;;;;;;;;;;;;;21.22;28.85;97594.72;4996591;28;1910;-79
2022/10/03 04:31:48;;;;;;;;;;;;;;;21.32;28.67;97605.75;5012180;28;1260;-79
2022/10/03 04:34:29;;;;;;;;;;;;;;;21.09;29.08;97606.06;4996050;28;1138;-79
2022/10/03 04:37:04;;;;;;;;;;;;;;;21.08;29.34;97604.44;4996089;28;779;-79
2022/10/03 04:39:42;;;;;;;;;;;;;;;20.76;29.75;97608.25;5012117;28;787;-80
2022/10/03 04:42:39;;;;;;;;;;;;;;;21.09;29.13;97606.06;4995694;28;1108;-80
2022/10/03 04:45:11;;;;;;;;;;;;;;;21.01;29.55;97605.47;4956111;29;1060;-80
2022/10/03 04:47:44;;;;;;;;;;;;;;;21.20;28.86;97589.53;4939797;29;867;-80
2022/10/03 04:50:12;;;;;;;;;;;;;;;21.18;29.06;97592.00;4939993;29;1906;-80
2022/10/03 04:52:38;;;;;;;;;;;;;;;20.89;29.22;97585.66;4939803;29;1112;-80
2022/10/03 04:55:22;;;;;;;;;;;;;;;21.02;29.13;97583.63;4955638;29;1036;-80
2022/10/03 04:57:52;;;;;;;;;;;;;;;20.73;29.76;97590.16;4955566;29;791;-80
2022/10/03 05:00:24;;;;;;;;;;;;;;;20.66;29.72;97581.88;4940225;29;828;-80
2022/10/03 05:02:51;;;;;;;;;;;;;;;21.05;29.14;97575.03;4924395;29;892;-80
2022/10/03 05:05:43;;;;;;;;;;;;;;;21.10;28.99;97573.69;4939795;29;772;-80
2022/10/03 05:08:08;;;;;;;;;;;;;;;20.83;29.69;97571.28;4846342;29;1110;-80
2022/10/03 05:10:52;;;;;;;;;;;;;;;20.80;29.41;97564.47;4846098;29;1969;-80
2022/10/03 05:13:28;;;;;;;;;;;;;;;20.81;29.38;97568.09;4861000;29;959;-79
2022/10/03 05:15:55;;;;;;;;;;;;;;;20.86;29.46;97563.94;4845359;29;906;-79
2022/10/03 05:18:34;;;;;;;;;;;;;;;21.00;29.09;97574.81;4845887;29;881;-80
2022/10/03 05:21:31;;;;;;;;;;;;;;;20.79;29.38;97579.09;4878548;29;987;-79
2022/10/03 05:24:01;;;;;;;;;;;;;;;21.16;28.90;97580.34;4861548;29;974;-79
2022/10/03 05:26:50;;;;;;;;;;;;;;;21.13;28.90;97589.75;4861447;29;1016;-80
2022/10/03 05:29:19;;;;;;;;;;;;;;;20.99;29.13;97601.50;4824843;29;1895;-80
2022/10/03 05:32:03;;;;;;;;;;;;;;;20.73;29.51;97618.44;4824723;29;1075;-80
2022/10/03 05:34:32;;;;;;;;;;;;;;;20.90;29.15;97618.34;4824751;29;919;-79
2022/10/03 05:37:01;;;;;;;;;;;;;;;21.01;29.00;97604.69;4825131;29;1163;-80
2022/10/03 05:39:44;;;;;;;;;;;;;;;20.71;29.59;97609.59;4816614;29;964;-80
2022/10/03 05:42:09;;;;;;;;;;;;;;;20.86;29.46;97615.63;4810419;29;1191;-80
2022/10/03 05:44:45;;;;;;;;;;;;;;;20.98;29.29;97605.56;4836233;29;942;-79
2022/10/03 05:50:10;;;;;;;;;;;;;;;20.93;29.23;97626.72;4883759;29;1972;-81
2022/10/03 05:52:46;;;;;;;;;;;;;;;20.99;29.18;97632.63;4911752;29;957;-80
2022/10/03 05:55:26;;;;;;;;;;;;;;;20.79;29.79;97636.41;4890115;29;817;-80
2022/10/03 05:58:00;;;;;;;;;;;;;;;21.02;29.09;97634.53;4905625;29;788;-80
2022/10/03 06:00:44;;;;;;;;;;;;;;;20.90;29.33;97635.31;4953821;29;953;-80
2022/10/03 06:03:19;;;;;;;;;;;;;;;20.91;29.64;97637.69;4959318;29;1117;-80
2022/10/03 06:06:02;;;;;;;;;;;;;;;20.98;29.21;97633.84;4972560;28;1012;-80
2022/10/03 06:08:43;;;;;;;;;;;;;;;21.10;29.26;97635.13;5017170;28;935;-80
2022/10/03 06:11:18;;;;;;;;;;;;;;;21.29;29.22;97642.59;5017691;28;1961;-80
2022/10/03 06:13:44;;;;;;;;;;;;;;;21.14;29.36;97625.28;5017076;28;1170;-80
2022/10/03 06:16:16;;;;;;;;;;;;;;;20.88;29.68;97637.78;5017619;28;1130;-80
2022/10/03 06:18:47;;;;;;;;;;;;;;;21.12;29.27;97633.41;5000956;28;813;-80
2022/10/03 06:21:15;;;;;;;;;;;;;;;21.07;29.49;97629.13;5001107;28;806;-80
2022/10/03 06:23:46;;;;;;;;;;;;;;;20.97;29.80;97620.94;5017291;28;799;-80
2022/10/03 06:26:23;;;;;;;;;;;;;;;20.87;30.11;97639.03;5017108;28;797;-80
2022/10/03 06:28:50;;;;;;;;;;;;;;;21.04;29.73;97635.69;5016836;28;921;-80
2022/10/03 06:31:34;;;;;;;;;;;;;;;21.08;29.71;97642.00;5016887;28;1902;-80
2022/10/03 06:34:18;;;;;;;;;;;;;;;20.97;29.79;97637.91;5016784;28;890;-80
2022/10/03 06:36:44;;;;;;;;;;;;;;;21.08;29.71;97642.00;5017241;28;831;-80
2022/10/03 06:39:09;;;;;;;;;;;;;;;21.29;29.36;97646.22;5010118;28;897;-80
2022/10/03 06:41:47;;;;;;;;;;;;;;;21.05;29.76;97656.28;5014828;28;1145;-80
2022/10/03 06:44:20;;;;;;;;;;;;;;;21.06;29.84;97643.72;4999380;28;802;-80
2022/10/03 06:46:49;;;;;;;;;;;;;;;20.94;30.15;97638.84;5014633;28;724;-80
2022/10/03 06:49:33;;;;;;;;;;;;;;;21.39;29.84;97644.34;5013589;28;1902;-79
2022/10/03 06:52:18;;;;;;;;;;;;;;;21.40;29.60;97643.13;5014425;28;844;-80
2022/10/03 06:54:44;;;;;;;;;;;;;;;21.18;29.88;97625.16;4996617;28;999;-80
2022/10/03 06:57:15;;;;;;;;;;;;;;;21.08;30.14;97632.72;4996735;28;1127;-80
2022/10/03 07:00:05;;;;;;;;;;;;;;;21.11;30.02;97620.53;4996746;28;1044;-80
2022/10/03 07:06:20;;;;;;;;;;;;;;;20.92;30.50;97635.66;4957705;29;964;-80
2022/10/03 07:08:45;;;;;;;;;;;;;;;20.95;30.54;97634.75;4941992;29;843;-80
2022/10/03 07:11:25;;;;;;;;;;;;;;;21.06;30.18;97640.88;4942103;29;1907;-80
2022/10/03 07:14:11;;;;;;;;;;;;;;;21.54;29.90;97641.84;4957746;29;1052;-80
2022/10/03 07:16:48;;;;;;;;;;;;;;;21.19;30.24;97636.06;4957860;29;831;-79
2022/10/03 07:19:24;;;;;;;;;;;;;;;20.97;30.76;97640.75;4957667;29;1013;-80
2022/10/03 07:22:08;;;;;;;;;;;;;;;20.93;30.89;97637.22;4941416;29;870;-80
2022/10/03 10:12:15;;;;;;;;;;;;;;;20.80;30.37;97621.03;4979157;28;842;-79
2022/10/03 10:14:44;;;;;;;;;;;;;;;20.90;30.37;97629.66;4966332;28;791;-78
2022/10/03 10:17:32;;;;;;;;;;;;;;;20.90;30.36;97621.19;4998637;28;838;-79
2022/10/03 10:20:16;;;;;;;;;;;;;;;20.93;30.35;97623.09;4979159;28;1137;-79
2022/10/03 10:23:01;;;;;;;;;;;;;;;20.92;30.34;97618.69;4980697;28;1149;-80
2022/10/03 10:25:33;;;;;;;;;;;;;;;21.06;30.15;97609.78;4998027;28;731;-78
2022/10/03 10:28:16;;;;;;;;;;;;;;;21.07;29.86;97609.31;4998258;28;866;-79
2022/10/03 10:30:53;;;;;;;;;;;;;;;21.00;29.98;97614.41;4997643;28;1907;-79
2022/10/03 10:33:37;;;;;;;;;;;;;;;20.90;30.09;97604.22;4980528;28;708;-78
2022/10/03 10:36:21;;;;;;;;;;;;;;;20.92;30.05;97590.41;4998241;28;735;-79
2022/10/03 10:39:02;;;;;;;;;;;;;;;20.87;30.15;97599.44;4981061;28;1242;-78
2022/10/03 10:41:46;;;;;;;;;;;;;;;20.89;30.23;97596.97;4998023;28;881;-78
2022/10/03 10:44:11;;;;;;;;;;;;;;;20.78;30.27;97603.75;4981251;28;1116;-79
2022/10/03 10:46:45;;;;;;;;;;;;;;;20.83;30.57;97599.56;4980852;28;977;-79
2022/10/03 10:49:26;;;;;;;;;;;;;;;20.94;30.13;97593.59;4964622;28;1906;-78
2022/10/03 10:51:55;;;;;;;;;;;;;;;21.21;29.73;97591.13;4998219;28;733;-78
2022/10/03 10:54:25;;;;;;;;;;;;;;;21.23;29.75;97585.78;4998158;28;968;-79
2022/10/03 10:57:06;;;;;;;;;;;;;;;21.10;29.74;97585.00;4980948;28;725;-78
2022/10/03 10:59:35;;;;;;;;;;;;;;;21.03;29.97;97590.84;4998047;28;936;-78
2022/10/03 11:02:04;;;;;;;;;;;;;;;20.79;30.65;97593.22;4997913;28;856;-78
2022/10/03 11:04:48;;;;;;;;;;;;;;;20.77;30.40;97582.34;4997934;28;720;-78
2022/10/03 11:07:16;;;;;;;;;;;;;;;20.73;30.55;97578.84;4997991;28;798;-78
2022/10/03 11:10:00;;;;;;;;;;;;;;;20.84;30.44;97583.38;4955831;28;1213938;-78
2022/10/03 11:12:34;;;;;;;;;;;;;;;21.12;30.22;97576.06;4998715;28;799;-78
2022/10/03 11:15:18;;;;;;;;;;;;;;;21.32;29.53;97574.59;4981582;28;810;-78
2022/10/03 11:17:47;;;;;;;;;;;;;;;21.10;29.99;97578.56;4980874;28;748;-79
2022/10/03 11:20:31;;;;;;;;;;;;;;;21.14;29.90;97571.53;4981427;28;803;-78
2022/10/03 11:23:15;;;;;;;;;;;;;;;20.98;30.24;97574.44;4998429;28;755;-78
2022/10/03 11:25:56;;;;;;;;;;;;;;;21.01;30.17;97577.19;4981474;28;1211;-78
2022/10/03 11:28:28;;;;;;;;;;;;;;;20.83;30.42;97571.28;4977888;28;799;-78
2022/10/03 11:30:59;;;;;;;;;;;;;;;20.99;30.06;97559.88;4998312;28;1977;-78
2022/10/03 11:33:37;;;;;;;;;;;;;;;20.90;30.26;97562.56;4980976;28;692;-78
2022/10/03 11:36:16;;;;;;;;;;;;;;;21.04;30.02;97564.19;4980694;28;1208;-78
2022/10/03 11:39:15;;;;;;;;;;;;;;;20.85;30.26;97557.47;4981538;28;1196;-78
2022/10/03 11:41:40;;;;;;;;;;;;;;;21.18;30.15;97552.41;4918832;29;1192;-78
2022/10/03 11:44:06;;;;;;;;;;;;;;;21.24;29.82;97549.78;4902815;29;1183;-78
2022/10/03 11:46:37;;;;;;;;;;;;;;;21.18;30.02;97551.59;4918136;29;1235;-78
2022/10/03 11:49:06;;;;;;;;;;;;;;;21.00;30.20;97552.19;4918525;29;823;-78
2022/10/03 11:51:52;;;;;;;;;;;;;;;20.81;30.45;97551.13;4917929;29;1907;-78
2022/10/03 11:54:17;;;;;;;;;;;;;;;21.04;30.51;97558.53;4918373;29;744;-78
2022/10/03 11:56:46;;;;;;;;;;;;;;;21.04;30.20;97556.50;4918068;29;1037;-78
2022/10/03 11:59:11;;;;;;;;;;;;;;;21.03;30.38;97556.91;4919438;29;905;-78
2022/10/03 12:01:51;;;;;;;;;;;;;;;21.01;30.21;97560.19;4918673;29;1041;-78
2022/10/03 12:04:27;;;;;;;;;;;;;;;20.87;30.75;97548.53;4918724;29;904;-78
2022/10/03 12:09:45;;;;;;;;;;;;;;;21.13;30.26;97547.31;4899633;29;1993;-78
2022/10/03 12:12:13;;;;;;;;;;;;;;;21.02;30.60;97555.34;4899571;29;906;-78
2022/10/03 12:14:45;;;;;;;;;;;;;;;20.92;30.61;97562.13;4899393;29;946;-78
2022/10/03 12:17:14;;;;;;;;;;;;;;;21.07;30.17;97551.94;4913400;28;887;-79
2022/10/03 12:19:42;;;;;;;;;;;;;;;21.20;30.09;97549.91;4979472;28;924;-78
2022/10/03 12:22:26;;;;;;;;;;;;;;;20.89;30.54;97546.84;4995219;28;742;-78
2022/10/03 12:24:54;;;;;;;;;;;;;;;20.74;31.05;97535.19;4979505;28;1132;-78
2022/10/03 12:27:37;;;;;;;;;;;;;;;20.95;30.58;97532.94;4994884;28;941;-78
2022/10/03 12:30:03;;;;;;;;;;;;;;;21.06;30.98;97522.09;4978223;28;1907;-78
2022/10/03 12:32:38;;;;;;;;;;;;;;;21.20;30.51;97524.47;4978337;28;995;-78
2022/10/03 12:35:07;;;;;;;;;;;;;;;21.16;30.50;97518.13;4995368;28;886;-78
2022/10/03 12:37:35;;;;;;;;;;;;;;;21.11;30.57;97518.69;4995169;28;822;-78
2022/10/03 12:40:01;;;;;;;;;;;;;;;21.03;30.81;97517.31;4985804;28;767;-78
2022/10/03 12:42:31;;;;;;;;;;;;;;;21.07;31.08;97524.44;4998205;28;884;-78
2022/10/03 12:44:56;;;;;;;;;;;;;;;21.13;31.11;97523.88;4998341;28;858;-77
2022/10/03 12:47:24;;;;;;;;;;;;;;;21.10;30.98;97527.63;5014728;28;1012;-78
2022/10/03 12:49:51;;;;;;;;;;;;;;;21.07;31.19;97532.16;5002305;28;1922;-78
2022/10/03 12:52:24;;;;;;;;;;;;;;;21.05;31.12;97526.94;5002264;28;1023;-78
2022/10/03 12:54:58;;;;;;;;;;;;;;;21.11;31.46;97520.72;4963123;28;949;-78
2022/10/03 12:57:52;;;;;;;;;;;;;;;21.23;31.16;97531.22;4963260;28;949;-78
2022/10/03 13:00:19;;;;;;;;;;;;;;;20.99;31.64;97533.63;4940726;29;1163;-78
2022/10/03 13:02:50;;;;;;;;;;;;;;;21.19;31.35;97537.03;4941198;29;835;-77
2022/10/03 13:05:18;;;;;;;;;;;;;;;21.04;31.64;97547.22;4940776;29;1046;-78
2022/10/03 13:07:44;;;;;;;;;;;;;;;21.19;31.12;97559.66;4940808;29;767;-78
2022/10/03 13:10:13;;;;;;;;;;;;;;;20.99;31.70;97545.72;4940565;29;1988;-78
2022/10/03 13:12:51;;;;;;;;;;;;;;;20.98;31.55;97543.34;4924934;29;741;-78
2022/10/03 13:15:43;;;;;;;;;;;;;;;20.97;31.50;97553.06;4940503;29;908;-78
2022/10/03 13:18:15;;;;;;;;;;;;;;;21.37;31.41;97547.00;4937675;29;1042;-77
2022/10/03 13:20:42;;;;;;;;;;;;;;;21.54;31.00;97548.44;4940535;29;929;-78
2022/10/03 13:23:29;;;;;;;;;;;;;;;21.09;31.63;97543.81;4924703;29;958;-78
2022/10/03 13:26:07;;;;;;;;;;;;;;;20.98;31.85;97549.00;4894180;29;1071;-78
2022/10/03 13:28:36;;;;;;;;;;;;;;;21.04;31.68;97553.66;4902533;29;924;-77
2022/10/03 13:31:07;;;;;;;;;;;;;;;21.12;31.10;97559.09;4902566;29;1972;-78
2022/10/03 13:33:35;;;;;;;;;;;;;;;20.96;31.43;97557.94;4902206;29;753;-79
2022/10/03 13:36:15;;;;;;;;;;;;;;;20.64;31.71;97558.91;4915139;29;1071;-78
2022/10/03 13:39:00;;;;;;;;;;;;;;;20.85;31.81;97562.34;4959467;29;898;-78
2022/10/03 13:41:35;;;;;;;;;;;;;;;20.73;31.91;97541.31;4959252;28;732;-78
2022/10/03 13:44:08;;;;;;;;;;;;;;;21.02;31.10;97550.47;4943631;29;1067;-79
2022/10/03 13:46:37;;;;;;;;;;;;;;;20.93;31.41;97541.06;4943742;29;1250;-77
2022/10/03 13:49:09;;;;;;;;;;;;;;;21.10;31.82;97541.78;4959408;29;1135;-78
2022/10/03 13:51:46;;;;;;;;;;;;;;;21.37;31.01;97530.00;4943833;29;1898;-78
2022/10/03 13:54:20;;;;;;;;;;;;;;;21.35;30.98;97524.00;4943461;29;784;-78
2022/10/03 13:56:48;;;;;;;;;;;;;;;21.31;31.12;97516.44;4943642;29;893;-78
2022/10/03 13:59:13;;;;;;;;;;;;;;;21.05;31.37;97515.63;4958751;28;800;-77
2022/10/03 14:01:41;;;;;;;;;;;;;;;21.09;31.44;97515.53;4958989;29;923;-77
2022/10/03 14:04:10;;;;;;;;;;;;;;;21.13;31.01;97518.22;5018021;28;925;-77
2022/10/03 14:06:36;;;;;;;;;;;;;;;20.81;31.51;97517.19;5018915;28;885;-78
2022/10/03 14:09:10;;;;;;;;;;;;;;;20.95;31.51;97511.09;5019961;28;771;-78
2022/10/03 14:12:05;;;;;;;;;;;;;;;20.93;31.52;97518.44;5018966;28;1902;-77
2022/10/03 14:14:38;;;;;;;;;;;;;;;21.07;31.17;97512.34;4977959;28;911;-78
2022/10/03 14:17:03;;;;;;;;;;;;;;;20.90;31.10;97513.72;4961999;28;1121;-79
2022/10/03 14:19:32;;;;;;;;;;;;;;;21.05;31.09;97509.19;4978107;28;889;-78
2022/10/03 14:22:16;;;;;;;;;;;;;;;20.90;31.18;97508.06;4997667;28;1233;-78
2022/10/03 14:24:56;;;;;;;;;;;;;;;21.35;30.87;97509.84;4977870;28;850;-77
2022/10/03 14:27:28;;;;;;;;;;;;;;;21.31;30.61;97507.94;4962218;28;823;-78
2022/10/03 14:29:59;;;;;;;;;;;;;;;21.12;31.08;97506.13;4977890;28;1977;-78
2022/10/03 14:32:36;;;;;;;;;;;;;;;21.00;31.01;97506.94;4945748;28;1476;-78
2022/10/03 14:35:20;;;;;;;;;;;;;;;20.98;31.13;97503.75;4961747;28;871;-77
2022/10/03 14:37:51;;;;;;;;;;;;;;;21.12;30.90;97494.81;4977588;28;975;-78
2022/10/03 14:40:27;;;;;;;;;;;;;;;21.03;31.01;97500.34;4977535;28;825;-78
2022/10/03 14:42:58;;;;;;;;;;;;;;;20.92;30.98;97497.06;4977219;28;810;-78
2022/10/03 14:45:28;;;;;;;;;;;;;;;20.89;31.06;97501.63;4976750;28;904;-78
2022/10/03 14:47:55;;;;;;;;;;;;;;;20.97;30.98;97490.84;4964103;28;975;-78
2022/10/03 14:50:24;;;;;;;;;;;;;;;21.10;30.57;97493.69;4985718;28;1910;-78
2022/10/03 14:52:50;;;;;;;;;;;;;;;21.14;30.98;97495.16;5016199;28;808;-78
2022/10/03 14:55:24;;;;;;;;;;;;;;;21.30;30.66;97495.06;5018015;28;762;-78
2022/10/03 14:57:50;;;;;;;;;;;;;;;21.07;31.09;97487.69;5000476;28;826;-78
2022/10/03 15:00:26;;;;;;;;;;;;;;;20.96;31.09;97500.59;5016420;28;787;-78
2022/10/03 15:02:52;;;;;;;;;;;;;;;21.01;31.08;97500.81;5016171;28;1150;-78
2022/10/03 15:05:24;;;;;;;;;;;;;;;21.08;31.02;97503.41;4998984;28;1261;-78
2022/10/03 15:07:49;;;;;;;;;;;;;;;21.07;30.82;97503.84;5015188;28;923;-78
2022/10/03 15:10:17;;;;;;;;;;;;;;;21.11;30.87;97510.19;4998675;28;1919;-78
2022/10/03 15:12:44;;;;;;;;;;;;;;;20.93;31.28;97510.75;4999618;28;787;-78
2022/10/03 15:15:15;;;;;;;;;;;;;;;21.03;30.72;97514.50;4999922;28;1055;-78
2022/10/03 15:17:44;;;;;;;;;;;;;;;20.75;31.50;97513.38;5016044;28;797;-78
2022/10/03 15:20:10;;;;;;;;;;;;;;;20.66;31.40;97513.22;5016143;28;828;-79
2022/10/03 15:22:38;;;;;;;;;;;;;;;20.71;31.23;97507.81;4999833;28;1687;-78
2022/10/03 15:25:22;;;;;;;;;;;;;;;20.81;31.41;97511.56;5015059;28;727;-78
2022/10/03 15:27:49;;;;;;;;;;;;;;;20.73;31.06;97513.81;5015120;28;947;-78
2022/10/03 15:30:21;;;;;;;;;;;;;;;20.70;31.23;97511.88;4999003;28;1969;-79
2022/10/03 15:32:48;;;;;;;;;;;;;;;20.80;31.54;97519.25;5015646;28;1110;-78
2022/10/03 15:35:19;;;;;;;;;;;;;;;21.21;30.46;97511.09;5015743;28;787;-78
2022/10/03 15:37:44;;;;;;;;;;;;;;;20.98;30.80;97527.16;5015397;28;844;-78
2022/10/03 15:40:28;;;;;;;;;;;;;;;21.22;30.45;97518.34;4990526;28;759;-78
2022/10/03 15:46:35;;;;;;;;;;;;;;;20.79;31.17;97525.34;4995774;28;924;-78
2022/10/03 15:49:05;;;;;;;;;;;;;;;20.61;31.50;97527.91;4979684;28;744;-78
2022/10/03 15:51:31;;;;;;;;;;;;;;;20.95;30.54;97527.28;4963476;28;1911;-78
2022/10/03 15:53:57;;;;;;;;;;;;;;;21.33;30.26;97525.25;4979591;28;787;-78
2022/10/03 15:56:26;;;;;;;;;;;;;;;21.20;30.41;97524.47;4979595;28;807;-78
2022/10/03 15:58:59;;;;;;;;;;;;;;;21.41;29.99;97530.69;4963700;28;799;-78
2022/10/03 16:01:25;;;;;;;;;;;;;;;21.07;30.62;97529.31;4979726;28;928;-78
2022/10/03 16:03:52;;;;;;;;;;;;;;;21.12;30.49;97531.56;4979635;28;881;-78
2022/10/03 16:06:19;;;;;;;;;;;;;;;20.99;30.74;97533.63;4995507;28;822;-78
2022/10/03 16:08:53;;;;;;;;;;;;;;;21.05;30.47;97537.47;4979875;28;1295;-78
2022/10/03 16:11:26;;;;;;;;;;;;;;;21.02;30.71;97541.19;5012974;28;1922;-78
2022/10/03 16:13:59;;;;;;;;;;;;;;;20.93;30.81;97541.06;5017133;28;802;-78
2022/10/03 16:16:29;;;;;;;;;;;;;;;21.39;30.34;97547.31;5016095;28;743;-78
2022/10/03 16:18:58;;;;;;;;;;;;;;;21.27;30.33;97558.16;5015662;28;923;-78
2022/10/03 16:21:32;;;;;;;;;;;;;;;21.07;30.78;97563.25;5016250;28;715;-78
2022/10/03 16:23:58;;;;;;;;;;;;;;;21.21;30.51;97562.81;4959865;28;1289;-78
2022/10/03 16:26:26;;;;;;;;;;;;;;;21.11;31.29;97566.78;4975815;28;803;-78
2022/10/03 16:28:55;;;;;;;;;;;;;;;21.20;30.94;97566.91;4976100;28;946;-78
2022/10/03 16:31:22;;;;;;;;;;;;;;;21.25;31.05;97569.16;4959721;28;1915;-78
2022/10/03 16:33:56;;;;;;;;;;;;;;;21.33;31.21;97564.88;4960100;28;1293;-78
2022/10/03 16:36:24;;;;;;;;;;;;;;;21.35;31.58;97566.44;4975359;28;748;-78
2022/10/03 16:38:59;;;;;;;;;;;;;;;21.16;31.54;97577.53;4975184;28;926;-78
2022/10/03 16:41:25;;;;;;;;;;;;;;;21.28;31.42;97573.91;4975186;28;854;-78
2022/10/03 16:44:14;;;;;;;;;;;;;;;21.27;31.25;97572.31;4958651;28;815;-78
2022/10/03 16:46:39;;;;;;;;;;;;;;;21.04;31.99;97573.47;4917349;29;1001;-78